Time;durP1;ratioP1;P1;durP2;ratioP2;P2;SDS_P1;SDS_P2;PMS_P1;PMS_P2;Temp;Humidity;BMP_temperature;BMP_pressure;BME280_temperature;BME280_humidity;BME280_pressure;Samples;Min_cycle;Max_cycle;Signal;HPM_P1;HPM_P2
2021/06/16 02:47:36;;;;;;;10.48;6.05;;;18.60;84.10;;;;;;4791608;24;20049;-74
2021/06/16 02:50:04;;;;;;;9.80;6.75;;;18.60;84.00;;;;;;4725495;30;20044;-75
2021/06/16 02:52:30;;;;;;;9.50;6.57;;;18.60;83.80;;;;;;4725554;30;20048;-77
2021/06/16 02:54:59;;;;;;;11.27;6.57;;;18.60;83.60;;;;;;4726673;30;20108;-77
2021/06/16 02:57:26;;;;;;;14.05;6.53;;;18.60;84.10;;;;;;4726580;30;20031;-76
2021/06/16 02:59:53;;;;;;;10.13;5.82;;;18.60;84.30;;;;;;4725871;30;20037;-77
2021/06/16 03:02:28;;;;;;;10.88;6.32;;;18.60;84.60;;;;;;4710723;30;20037;-74
2021/06/16 03:04:57;;;;;;;9.63;6.32;;;18.70;84.60;;;;;;4726508;30;20052;-76
2021/06/16 03:07:23;;;;;;;10.88;6.50;;;18.70;84.10;;;;;;4726496;30;20320;-77
2021/06/16 03:09:49;;;;;;;9.63;6.40;;;18.80;84.10;;;;;;4725609;30;20309;-77
2021/06/16 03:12:17;;;;;;;8.67;6.03;;;18.80;84.40;;;;;;4726544;30;20040;-74
2021/06/16 03:14:45;;;;;;;13.38;6.35;;;18.80;84.30;;;;;;4726499;30;20099;-76
2021/06/16 03:17:12;;;;;;;13.98;6.50;;;18.90;83.90;;;;;;4726301;30;20029;-76
2021/06/16 03:19:39;;;;;;;10.20;6.05;;;18.80;84.00;;;;;;4709090;30;20037;-76
2021/06/16 03:22:06;;;;;;;14.07;6.90;;;18.90;83.80;;;;;;4725428;30;20057;-76
2021/06/16 03:24:33;;;;;;;9.38;6.70;;;18.90;84.00;;;;;;4725586;30;20032;-76
2021/06/16 03:26:59;;;;;;;12.20;6.88;;;18.90;83.40;;;;;;4728420;30;20039;-76
2021/06/16 03:29:26;;;;;;;11.95;7.22;;;18.90;84.10;;;;;;4717908;30;20036;-77
2021/06/16 03:31:55;;;;;;;13.07;6.93;;;19.00;84.20;;;;;;4729562;30;20040;-76
2021/06/16 03:34:21;;;;;;;9.05;6.32;;;19.00;84.30;;;;;;4729673;30;20401;-76
2021/06/16 03:36:48;;;;;;;13.75;7.13;;;19.10;83.90;;;;;;4729399;30;20029;-76
2021/06/16 03:39:15;;;;;;;13.80;7.43;;;19.10;83.90;;;;;;4729498;30;20033;-76
2021/06/16 03:41:41;;;;;;;16.65;7.32;;;19.20;83.80;;;;;;4728046;30;20041;-76
2021/06/16 03:44:08;;;;;;;22.80;7.97;;;19.30;83.50;;;;;;4728528;30;20037;-76
2021/06/16 03:46:36;;;;;;;15.90;7.50;;;19.50;83.10;;;;;;4719764;30;20372;-76
2021/06/16 03:49:07;;;;;;;10.65;6.43;;;19.60;82.90;;;;;;4712221;30;20221;-76
2021/06/16 03:51:34;;;;;;;11.40;7.07;;;19.80;82.40;;;;;;4726633;30;20037;-76
2021/06/16 03:54:01;;;;;;;12.43;6.95;;;20.00;82.00;;;;;;4722427;30;20123;-76
2021/06/16 03:56:27;;;;;;;12.27;6.88;;;20.10;81.40;;;;;;4721895;30;20065;-76
2021/06/16 03:58:54;;;;;;;16.38;6.97;;;20.20;81.10;;;;;;4713927;30;20112;-76
2021/06/16 04:01:20;;;;;;;9.40;6.97;;;20.30;80.60;;;;;;4725468;30;20057;-76
2021/06/16 04:03:47;;;;;;;12.15;6.45;;;20.40;80.10;;;;;;4717190;30;20045;-77
2021/06/16 04:06:14;;;;;;;13.38;7.05;;;20.50;79.50;;;;;;4721384;30;20033;-76
2021/06/16 04:08:42;;;;;;;;;;;20.60;79.10;;;;;;4702728;30;20061;-77
2021/06/16 04:11:08;;;;;;;12.43;6.03;;;20.70;78.90;;;;;;4713319;30;20119;-76
2021/06/16 04:13:35;;;;;;;14.15;6.43;;;20.80;78.60;;;;;;4713269;30;20025;-76
2021/06/16 04:16:02;;;;;;;17.42;6.40;;;20.90;78.30;;;;;;4713672;30;20073;-76
2021/06/16 04:18:30;;;;;;;15.45;7.40;;;20.90;77.90;;;;;;4715247;30;20075;-74
2021/06/16 04:20:56;;;;;;;11.45;6.55;;;20.90;77.70;;;;;;4714366;30;20088;-75
2021/06/16 04:23:22;;;;;;;14.32;6.80;;;21.00;77.60;;;;;;4706919;30;20022;-76
2021/06/16 04:25:47;;;;;;;11.85;7.00;;;21.10;77.40;;;;;;4703587;30;20092;-74
2021/06/16 04:28:13;;;;;;;9.23;6.10;;;21.20;76.70;;;;;;4711052;30;20032;-76
2021/06/16 04:30:39;;;;;;;17.10;6.05;;;21.20;76.60;;;;;;4705568;30;20025;-75
2021/06/16 04:33:07;;;;;;;9.63;6.38;;;21.30;76.60;;;;;;4715747;30;20029;-76
2021/06/16 04:35:33;;;;;;;20.27;7.60;;;21.40;76.40;;;;;;4728001;30;20033;-76
2021/06/16 04:37:59;;;;;;;15.68;5.95;;;21.50;75.90;;;;;;4709594;30;20108;-73
2021/06/16 04:40:25;;;;;;;12.17;5.97;;;21.60;75.30;;;;;;4705283;30;20026;-75
2021/06/16 04:42:51;;;;;;;12.57;6.38;;;21.70;74.80;;;;;;4715204;30;20649;-74
2021/06/16 04:45:16;;;;;;;15.82;6.22;;;21.90;74.10;;;;;;4712074;30;20348;-75
2021/06/16 04:47:42;;;;;;;16.95;6.43;;;22.00;73.80;;;;;;4697865;30;20053;-74
2021/06/16 04:50:11;;;;;;;15.40;6.53;;;22.20;73.20;;;;;;4708499;30;20029;-74
2021/06/16 04:52:36;;;;;;;10.45;6.07;;;22.40;72.00;;;;;;4716628;30;20309;-73
2021/06/16 04:55:04;;;;;;;11.98;6.13;;;22.60;71.40;;;;;;4715485;30;20144;-76
2021/06/16 04:57:30;;;;;;;22.63;5.57;;;22.80;70.50;;;;;;4713073;30;20038;-74
2021/06/16 04:59:55;;;;;;;11.93;6.30;;;23.00;70.00;;;;;;4697082;30;20199;-74
2021/06/16 05:02:21;;;;;;;24.13;6.95;;;23.20;69.00;;;;;;4709773;30;20029;-74
2021/06/16 05:04:47;;;;;;;11.90;5.85;;;23.40;68.00;;;;;;4715189;30;20026;-74
2021/06/16 05:07:13;;;;;;;12.27;6.47;;;23.50;66.30;;;;;;4713381;30;20124;-74
2021/06/16 05:09:38;;;;;;;14.55;6.45;;;23.50;66.60;;;;;;4707981;30;20297;-74
2021/06/16 05:12:05;;;;;;;15.68;5.82;;;23.70;66.50;;;;;;4706004;30;20029;-74
2021/06/16 05:14:31;;;;;;;14.80;6.22;;;23.90;64.70;;;;;;4715169;30;20284;-74
2021/06/16 05:16:57;;;;;;;12.00;5.40;;;24.70;64.10;;;;;;4696642;30;20113;-74
2021/06/16 05:19:24;;;;;;;13.60;6.20;;;25.60;58.70;;;;;;4716609;30;20037;-76
2021/06/16 05:21:50;;;;;;;9.63;5.50;;;26.50;56.30;;;;;;4709715;30;20391;-76
2021/06/16 05:24:17;;;;;;;11.25;5.07;;;27.40;54.80;;;;;;4708146;30;20085;-76
2021/06/16 05:26:43;;;;;;;12.68;5.50;;;28.30;52.00;;;;;;4709123;30;20044;-77
2021/06/16 05:29:09;;;;;;;9.67;4.70;;;28.80;50.20;;;;;;4692285;30;20030;-77
2021/06/16 05:31:35;;;;;;;14.20;5.13;;;29.20;48.50;;;;;;4703501;30;20049;-76
2021/06/16 05:34:02;;;;;;;14.13;5.45;;;29.80;47.70;;;;;;4718236;30;20482;-76
2021/06/16 05:36:29;;;;;;;15.60;5.35;;;30.40;46.80;;;;;;4708924;30;20244;-76
2021/06/16 05:38:55;;;;;;;11.80;5.15;;;30.90;45.20;;;;;;4713939;30;20052;-76
2021/06/16 05:41:22;;;;;;;7.50;4.47;;;31.20;43.50;;;;;;4708335;30;20045;-77
2021/06/16 05:43:48;;;;;;;10.73;4.63;;;31.00;42.60;;;;;;4704692;30;20093;-76
2021/06/16 05:46:14;;;;;;;13.40;4.57;;;30.90;42.90;;;;;;4701350;30;20056;-76
2021/06/16 05:48:39;;;;;;;11.40;5.53;;;30.60;42.10;;;;;;4708017;30;20088;-76
2021/06/16 05:51:05;;;;;;;10.13;6.20;;;30.40;42.50;;;;;;4710978;30;20319;-76
2021/06/16 05:53:32;;;;;;;14.00;5.30;;;30.00;43.00;;;;;;4709112;30;20046;-76
2021/06/16 05:55:58;;;;;;;;;;;29.90;43.20;;;;;;4719456;30;20052;-76
2021/06/16 05:58:24;;;;;;;16.40;5.63;;;29.80;44.10;;;;;;4702607;30;20079;-76
2021/06/16 06:00:50;;;;;;;14.23;5.03;;;29.80;43.70;;;;;;4718935;30;20403;-76
2021/06/16 06:03:15;;;;;;;8.83;4.53;;;29.50;44.10;;;;;;4702312;30;20029;-76
2021/06/16 06:05:41;;;;;;;14.88;5.85;;;29.40;45.10;;;;;;4720362;30;20104;-76
2021/06/16 06:08:07;;;;;;;18.97;6.93;;;29.30;45.20;;;;;;4720099;30;20052;-77
2021/06/16 06:10:33;;;;;;;17.80;6.70;;;29.30;45.40;;;;;;4705973;30;20033;-76
2021/06/16 06:12:59;;;;;;;16.63;6.43;;;29.10;45.20;;;;;;4721789;30;20320;-76
2021/06/16 06:15:25;;;;;;;10.90;6.07;;;29.10;47.00;;;;;;4720879;30;20037;-77
2021/06/16 06:17:51;;;;;;;13.47;5.83;;;29.30;45.70;;;;;;4710032;30;20108;-77
2021/06/16 06:20:17;;;;;;;18.15;5.38;;;29.10;45.60;;;;;;4727007;30;20029;-77
2021/06/16 06:22:43;;;;;;;10.48;5.95;;;29.10;46.20;;;;;;4718874;30;20044;-76
2021/06/16 06:25:10;;;;;;;18.37;5.37;;;29.10;45.80;;;;;;4696182;30;20033;-77
2021/06/16 06:27:37;;;;;;;11.45;5.85;;;28.80;45.10;;;;;;4716070;30;20033;-77
2021/06/16 06:30:04;;;;;;;17.40;5.13;;;28.60;45.80;;;;;;4712958;30;20025;-78
2021/06/16 06:32:31;;;;;;;12.02;5.20;;;28.70;45.90;;;;;;4705932;30;20033;-77
2021/06/16 06:34:57;;;;;;;26.77;5.83;;;28.70;46.40;;;;;;4717026;30;20045;-78
2021/06/16 06:37:22;;;;;;;17.40;4.97;;;28.70;46.10;;;;;;4698483;30;20291;-76
2021/06/16 06:39:49;;;;;;;14.52;4.72;;;28.80;45.80;;;;;;4706875;30;20061;-76
2021/06/16 06:42:18;;;;;;;;;;;28.80;45.30;;;;;;4711555;30;20102;-76
2021/06/16 06:44:44;;;;;;;11.77;5.38;;;28.70;44.70;;;;;;4714151;30;19911;-76
2021/06/16 06:47:10;;;;;;;16.33;5.40;;;28.80;44.30;;;;;;4719805;30;20365;-77
2021/06/16 06:49:36;;;;;;;19.27;5.25;;;28.80;43.90;;;;;;4723702;30;20055;-76
2021/06/16 06:52:02;;;;;;;9.67;4.40;;;28.70;44.40;;;;;;4717590;30;20044;-76
2021/06/16 06:54:28;;;;;;;15.70;4.82;;;28.90;45.20;;;;;;4720924;30;20041;-76
2021/06/16 06:56:54;;;;;;;19.57;5.50;;;28.90;44.60;;;;;;4719833;30;20045;-76
2021/06/16 06:59:20;;;;;;;11.03;4.53;;;29.00;43.90;;;;;;4714250;30;20244;-76
2021/06/16 07:01:45;;;;;;;14.30;4.87;;;29.00;44.40;;;;;;4712787;30;20045;-76
2021/06/16 07:04:11;;;;;;;11.20;4.60;;;28.80;44.30;;;;;;4717467;30;20052;-76
2021/06/16 07:06:37;;;;;;;11.47;4.63;;;29.00;45.00;;;;;;4719236;30;20185;-76
2021/06/16 07:09:03;;;;;;;11.10;4.90;;;29.00;43.80;;;;;;4717562;30;20029;-76
2021/06/16 07:11:29;;;;;;;17.02;5.65;;;29.00;42.80;;;;;;4713697;30;20036;-76
2021/06/16 07:13:55;;;;;;;15.10;4.70;;;29.00;43.80;;;;;;4730140;30;20029;-76
2021/06/16 07:16:21;;;;;;;13.97;5.03;;;29.00;43.10;;;;;;4725846;30;20229;-76
2021/06/16 07:18:48;;;;;;;13.47;5.63;;;29.00;43.90;;;;;;4717338;30;20113;-77
2021/06/16 07:21:14;;;;;;;14.10;6.10;;;29.00;43.30;;;;;;4712557;30;20161;-78
2021/06/16 07:23:40;;;;;;;16.80;5.18;;;28.90;44.30;;;;;;4700957;30;20359;-77
2021/06/16 07:26:06;;;;;;;12.90;4.67;;;28.90;44.80;;;;;;4696889;30;20061;-76
2021/06/16 07:28:32;;;;;;;16.00;4.97;;;29.00;43.70;;;;;;4715166;30;20029;-76
2021/06/16 07:30:58;;;;;;;22.53;5.83;;;29.00;43.80;;;;;;4695300;30;20030;-76
2021/06/16 07:33:24;;;;;;;11.57;4.87;;;29.10;44.70;;;;;;4714398;30;20033;-76
2021/06/16 07:35:50;;;;;;;11.38;4.50;;;29.10;44.70;;;;;;4716642;30;20359;-76
2021/06/16 07:38:16;;;;;;;12.13;4.90;;;29.20;43.70;;;;;;4722518;30;20095;-77
2021/06/16 07:40:42;;;;;;;19.43;5.07;;;29.40;45.00;;;;;;4710321;30;20034;-77
2021/06/16 07:43:07;;;;;;;13.30;4.90;;;29.60;44.40;;;;;;4707408;30;20030;-76
2021/06/16 07:45:33;;;;;;;15.13;4.60;;;29.70;41.80;;;;;;4706192;30;20018;-76
2021/06/16 07:47:59;;;;;;;15.37;5.27;;;29.50;41.60;;;;;;4713837;30;20213;-76
2021/06/16 07:50:26;;;;;;;10.77;4.65;;;29.30;42.80;;;;;;4713039;30;20528;-77
2021/06/16 07:52:52;;;;;;;9.02;5.10;;;29.30;43.90;;;;;;4707051;30;20041;-77
2021/06/16 07:55:18;;;;;;;12.48;5.15;;;29.50;42.80;;;;;;4694886;30;20108;-77
2021/06/16 07:57:45;;;;;;;14.67;4.43;;;29.60;43.20;;;;;;4720664;30;20048;-77
2021/06/16 08:00:11;;;;;;;8.10;4.32;;;29.40;41.30;;;;;;4711201;30;20037;-77
2021/06/16 08:02:41;;;;;;;10.57;4.82;;;29.30;41.50;;;;;;4698806;30;20078;-77
2021/06/16 08:05:08;;;;;;;10.07;5.07;;;29.40;42.10;;;;;;4723735;30;20229;-77
2021/06/16 08:07:34;;;;;;;10.95;5.15;;;29.40;42.60;;;;;;4722825;30;20595;-77
2021/06/16 08:09:59;;;;;;;17.97;5.10;;;29.40;42.00;;;;;;4715768;30;20042;-78
2021/06/16 08:12:25;;;;;;;21.30;5.10;;;29.30;42.20;;;;;;4711465;30;20037;-77
2021/06/16 08:14:52;;;;;;;15.03;5.23;;;29.30;41.50;;;;;;4702407;30;20038;-78
2021/06/16 08:17:18;;;;;;;13.80;4.78;;;29.20;44.00;;;;;;4717163;30;20033;-78
2021/06/16 08:19:44;;;;;;;14.87;5.00;;;29.30;41.80;;;;;;4729759;30;20116;-77
2021/06/16 08:22:13;;;;;;;21.38;5.18;;;29.30;43.60;;;;;;4728928;30;20091;-78
2021/06/16 08:24:40;;;;;;;17.45;5.90;;;29.40;43.20;;;;;;4724600;30;20025;-77
2021/06/16 08:27:07;;;;;;;52.22;9.38;;;29.60;41.70;;;;;;4705877;30;20030;-77
2021/06/16 08:29:33;;;;;;;16.25;4.72;;;29.70;41.40;;;;;;4724218;30;20029;-77
2021/06/16 08:31:59;;;;;;;208.90;19.00;;;29.70;41.30;;;;;;4712709;30;20025;-77
2021/06/16 08:34:25;;;;;;;15.57;4.73;;;29.60;39.80;;;;;;4708177;30;20064;-77
2021/06/16 08:36:51;;;;;;;17.60;5.37;;;29.60;41.10;;;;;;4712636;30;20228;-77
2021/06/16 08:39:16;;;;;;;10.60;4.30;;;29.50;41.60;;;;;;4719771;30;20057;-78
2021/06/16 08:41:43;;;;;;;13.27;4.53;;;29.50;41.70;;;;;;4711185;30;20037;-78
2021/06/16 08:44:11;;;;;;;16.85;4.95;;;29.60;41.30;;;;;;4717077;30;20122;-78
2021/06/16 08:46:37;;;;;;;17.10;4.57;;;29.70;42.20;;;;;;4697105;30;20053;-78
2021/06/16 08:49:05;;;;;;;11.82;4.47;;;29.70;42.40;;;;;;4716697;30;20108;-77
2021/06/16 08:51:31;;;;;;;14.95;4.35;;;29.80;42.80;;;;;;4722782;30;20118;-78
2021/06/16 08:53:57;;;;;;;14.80;5.45;;;29.90;42.40;;;;;;4713438;30;20202;-77
2021/06/16 08:56:23;;;;;;;12.67;4.83;;;29.90;42.10;;;;;;4723364;30;20044;-77
2021/06/16 08:58:48;;;;;;;12.17;4.67;;;29.80;40.40;;;;;;4702033;30;20029;-77
2021/06/16 09:01:15;;;;;;;12.17;5.17;;;29.80;41.90;;;;;;4728062;30;20033;-78
2021/06/16 09:03:42;;;;;;;15.23;6.07;;;29.80;41.00;;;;;;4722273;30;20037;-77
2021/06/16 09:06:11;;;;;;;12.07;5.00;;;30.10;43.70;;;;;;4727833;30;20064;-77
2021/06/16 09:09:03;;;;;;;21.02;5.10;;;30.10;40.70;;;;;;4722946;30;20075;-76
2021/06/16 09:11:49;;;;;;;23.00;5.05;;;30.10;41.60;;;;;;4723623;30;20037;-78
2021/06/16 09:14:19;;;;;;;24.75;4.95;;;30.20;40.80;;;;;;4692000;30;20112;-77
2021/06/16 09:16:45;;;;;;;18.45;5.10;;;30.30;42.00;;;;;;4722807;30;20036;-77
2021/06/16 09:19:25;;;;;;;19.25;5.18;;;30.20;41.20;;;;;;4728584;30;20029;-77
2021/06/16 09:22:01;;;;;;;15.30;4.72;;;30.40;41.40;;;;;;4710997;30;20036;-77
2021/06/16 09:25:06;;;;;;;22.07;4.70;;;30.50;39.10;;;;;;4719951;30;20044;-77
2021/06/16 09:27:51;;;;;;;22.67;5.30;;;30.60;39.90;;;;;;4719851;30;20063;-77
2021/06/16 09:30:21;;;;;;;19.15;4.82;;;30.50;40.30;;;;;;4698289;30;20047;-78
2021/06/16 09:32:53;;;;;;;15.20;5.75;;;30.60;42.70;;;;;;4711718;30;20049;-77
2021/06/16 09:35:29;;;;;;;16.67;4.22;;;30.90;42.50;;;;;;4710545;30;20069;-77
2021/06/16 09:37:56;;;;;;;15.27;5.28;;;31.10;40.80;;;;;;4715087;30;20037;-77
2021/06/16 09:40:25;;;;;;;13.57;4.40;;;31.20;40.80;;;;;;4706524;30;20336;-77
2021/06/16 09:43:00;;;;;;;13.43;4.13;;;31.20;39.70;;;;;;4687232;30;20083;-77
2021/06/16 09:45:27;;;;;;;11.68;4.22;;;31.10;39.10;;;;;;4715116;30;20091;-77
2021/06/16 09:47:53;;;;;;;24.40;4.28;;;31.00;39.80;;;;;;4726255;30;20049;-77
2021/06/16 09:50:23;;;;;;;25.27;4.70;;;30.90;37.90;;;;;;4686522;30;20044;-77
2021/06/16 09:52:50;;;;;;;16.80;4.53;;;31.00;38.50;;;;;;4726178;30;20090;-77
2021/06/16 09:55:26;;;;;;;13.57;3.90;;;31.10;38.70;;;;;;4709189;30;20049;-77
2021/06/16 09:58:04;;;;;;;13.85;4.18;;;31.10;38.30;;;;;;4697301;30;20029;-77
2021/06/16 10:00:33;;;;;;;18.00;4.32;;;31.20;38.20;;;;;;4691271;30;20089;-77
2021/06/16 10:03:08;;;;;;;21.63;4.53;;;31.20;38.90;;;;;;4693398;30;20034;-77
2021/06/16 10:05:35;;;;;;;13.68;3.80;;;31.20;37.90;;;;;;4703575;30;20343;-77
2021/06/16 10:08:00;;;;;;;17.30;4.07;;;31.10;36.60;;;;;;4703738;30;20026;-77
2021/06/16 10:10:26;;;;;;;15.27;4.03;;;30.90;37.30;;;;;;4709439;30;20052;-77
2021/06/16 10:12:53;;;;;;;14.97;3.87;;;30.90;38.00;;;;;;4683438;30;20030;-77
2021/06/16 10:15:22;;;;;;;16.55;3.35;;;31.10;38.30;;;;;;4703756;30;20093;-77
2021/06/16 10:17:50;;;;;;;13.30;4.10;;;31.10;37.70;;;;;;4691178;30;20040;-77
2021/06/16 10:20:17;;;;;;;8.15;3.90;;;31.30;36.80;;;;;;4709741;30;20037;-77
2021/06/16 10:22:43;;;;;;;17.98;3.92;;;31.30;36.60;;;;;;4695289;30;20375;-78
2021/06/16 10:25:10;;;;;;;12.35;3.97;;;31.20;39.90;;;;;;4710756;30;20109;-78
2021/06/16 10:27:46;;;;;;;12.18;3.70;;;31.20;40.00;;;;;;4705149;30;20049;-77
2021/06/16 10:30:15;;;;;;;8.93;3.50;;;31.40;36.40;;;;;;4708246;30;20049;-77
2021/06/16 10:32:47;;;;;;;14.52;3.65;;;31.50;36.90;;;;;;4693766;30;20038;-78
2021/06/16 10:35:37;;;;;;;13.30;3.60;;;31.70;35.60;;;;;;4692653;30;20029;-77
2021/06/16 10:38:18;;;;;;;12.43;3.10;;;31.60;36.30;;;;;;4698336;30;20041;-77
2021/06/16 10:40:51;;;;;;;11.48;3.28;;;31.60;35.70;;;;;;4692542;30;20084;-77
2021/06/16 10:43:20;;;;;;;6.45;3.20;;;31.60;35.40;;;;;;4704467;30;20037;-78
2021/06/16 10:46:01;;;;;;;6.13;2.97;;;31.70;35.50;;;;;;4706254;30;20116;-78
2021/06/16 10:48:51;;;;;;;5.70;3.55;;;31.80;39.90;;;;;;4718657;30;20048;-77
2021/06/16 10:51:30;;;;;;;14.18;5.32;;;32.00;34.90;;;;;;4725910;30;20055;-75
2021/06/16 10:54:21;;;;;;;26.98;7.15;;;31.80;34.20;;;;;;4721109;30;20037;-76
2021/06/16 10:56:54;;;;;;;13.90;5.88;;;31.70;36.30;;;;;;4719865;30;20044;-76
2021/06/16 10:59:42;;;;;;;9.90;4.30;;;31.60;35.30;;;;;;4719725;30;20037;-76
2021/06/16 11:02:12;;;;;;;11.20;4.07;;;31.60;37.00;;;;;;4704351;30;20218;-76
2021/06/16 11:04:39;;;;;;;6.93;3.80;;;31.80;37.90;;;;;;4695208;30;20108;-76
2021/06/16 11:07:30;;;;;;;17.55;3.85;;;31.90;35.90;;;;;;4715313;30;20340;-76
2021/06/16 11:10:00;;;;;;;18.55;5.40;;;32.00;34.40;;;;;;4722848;30;20037;-76
2021/06/16 11:12:36;;;;;;;16.38;4.53;;;32.30;35.40;;;;;;4713795;30;20041;-76
2021/06/16 11:15:10;;;;;;;18.13;5.85;;;32.40;36.10;;;;;;4721708;30;20042;-76
2021/06/16 11:17:36;;;;;;;30.73;7.53;;;32.40;34.90;;;;;;4719031;30;20037;-76
2021/06/16 11:20:14;;;;;;;13.43;4.50;;;32.50;35.40;;;;;;4715230;30;20313;-76
2021/06/16 11:22:55;;;;;;;10.77;3.20;;;32.30;34.00;;;;;;4708548;30;20057;-76
2021/06/16 11:25:28;;;;;;;9.05;3.55;;;32.20;35.70;;;;;;4715544;30;20040;-76
2021/06/16 11:28:12;;;;;;;12.15;3.17;;;32.40;36.40;;;;;;4722688;30;20048;-76
2021/06/16 11:30:56;;;;;;;11.27;3.38;;;32.40;34.30;;;;;;4715082;30;20039;-76
2021/06/16 11:33:23;;;;;;;10.20;2.65;;;32.50;36.20;;;;;;4719662;30;20037;-76
2021/06/16 11:35:49;;;;;;;12.52;3.00;;;32.60;35.50;;;;;;4720242;30;20234;-75
2021/06/16 11:38:20;;;;;;;12.03;2.83;;;32.80;35.20;;;;;;4715262;30;20061;-76
2021/06/16 11:41:15;;;;;;;17.20;2.97;;;32.80;33.50;;;;;;4715130;30;20290;-76
2021/06/16 11:44:09;;;;;;;16.23;3.40;;;32.50;37.90;;;;;;4711971;30;20053;-76
2021/06/16 11:46:43;;;;;;;9.48;3.22;;;32.50;36.30;;;;;;4715015;30;20124;-76
2021/06/16 11:49:20;;;;;;;10.27;2.90;;;32.60;35.60;;;;;;4718901;30;20033;-76
2021/06/16 11:51:55;;;;;;;11.13;3.70;;;32.70;35.20;;;;;;4718441;30;20037;-75
2021/06/16 11:54:33;;;;;;;5.50;3.17;;;32.80;35.10;;;;;;4722150;30;20033;-76
2021/06/16 11:56:59;;;;;;;8.80;2.90;;;32.80;35.10;;;;;;4713172;30;20094;-76
2021/06/16 11:59:47;;;;;;;10.73;2.83;;;32.70;34.40;;;;;;4718928;30;20037;-76
2021/06/16 12:02:27;;;;;;;8.00;2.92;;;32.70;35.80;;;;;;4723317;30;20316;-76
2021/06/16 12:04:55;;;;;;;5.50;2.65;;;32.80;33.70;;;;;;4722258;30;20025;-76
2021/06/16 12:07:21;;;;;;;4.78;3.15;;;32.60;33.90;;;;;;4708272;30;20217;-76
2021/06/16 12:09:48;;;;;;;10.00;2.70;;;32.60;35.60;;;;;;4727284;30;20051;-77
2021/06/16 12:12:14;;;;;;;6.32;2.63;;;32.70;34.30;;;;;;4710070;30;20107;-76
2021/06/16 12:14:40;;;;;;;8.85;2.30;;;32.90;34.30;;;;;;4710840;30;20237;-76
2021/06/16 12:17:06;;;;;;;9.80;2.70;;;33.10;35.10;;;;;;4715718;30;20037;-75
2021/06/16 12:19:37;;;;;;;9.30;3.17;;;33.10;35.60;;;;;;4708857;30;20298;-76
2021/06/16 12:22:10;;;;;;;8.25;2.70;;;33.20;35.50;;;;;;4701541;30;20439;-75
2021/06/16 12:24:41;;;;;;;7.25;2.63;;;33.20;34.60;;;;;;4717083;30;20028;-76
2021/06/16 12:27:21;;;;;;;9.57;2.78;;;33.30;34.10;;;;;;4724094;30;20037;-76
2021/06/16 12:29:49;;;;;;;11.52;2.85;;;33.30;34.20;;;;;;4720888;30;20221;-77
2021/06/16 12:32:24;;;;;;;5.35;2.70;;;33.20;34.00;;;;;;4721830;30;20363;-76
2021/06/16 12:35:25;;;;;;;19.55;3.90;;;33.30;33.90;;;;;;4723232;30;20099;-76
2021/06/16 12:37:56;;;;;;;10.25;2.95;;;33.20;32.60;;;;;;4716303;30;20037;-76
2021/06/16 12:40:39;;;;;;;4.75;2.35;;;33.00;35.50;;;;;;4705562;30;20047;-76
2021/06/16 12:43:08;;;;;;;8.88;2.58;;;33.10;35.40;;;;;;4714224;30;20051;-76
2021/06/16 12:45:34;;;;;;;4.00;2.10;;;33.10;32.80;;;;;;4700770;30;20038;-76
2021/06/16 12:48:26;;;;;;;7.17;2.47;;;33.00;33.50;;;;;;4706959;30;20041;-76
2021/06/16 12:51:03;;;;;;;5.15;2.10;;;33.10;35.20;;;;;;4714579;30;20048;-77
2021/06/16 12:53:35;;;;;;;11.15;2.28;;;33.40;33.20;;;;;;4719672;30;20038;-77
2021/06/16 12:56:02;;;;;;;12.55;2.70;;;33.30;34.90;;;;;;4716870;30;20531;-77
2021/06/16 12:58:29;;;;;;;9.23;3.00;;;33.30;33.50;;;;;;4717076;30;20215;-77
2021/06/16 13:00:56;;;;;;;6.78;3.25;;;33.40;34.50;;;;;;4721965;30;20025;-77
2021/06/16 13:03:25;;;;;;;9.10;2.83;;;33.40;33.40;;;;;;4709697;30;20079;-76
2021/06/16 13:05:55;;;;;;;8.63;2.85;;;33.60;32.80;;;;;;4726302;30;20025;-74
2021/06/16 13:08:45;;;;;;;16.83;2.97;;;33.50;32.90;;;;;;4716786;30;20091;-75
2021/06/16 13:11:23;;;;;;;1.90;0.32;;;33.40;33.60;;;;;;4709976;30;20033;-75
2021/06/16 13:14:09;;;;;;;3.50;0.80;;;33.50;34.20;;;;;;4714770;30;20108;-75
2021/06/16 13:16:35;;;;;;;0.80;0.08;;;33.50;32.20;;;;;;4696417;30;20042;-75
2021/06/16 13:19:11;;;;;;;0.00;0.00;;;33.50;31.70;;;;;;4717357;30;20100;-75
2021/06/16 13:21:38;;;;;;;0.00;0.00;;;33.60;32.00;;;;;;4701131;30;20101;-75
2021/06/16 13:24:05;;;;;;;0.00;0.00;;;33.60;31.60;;;;;;4714277;30;20060;-75
2021/06/16 13:26:31;;;;;;;0.00;0.00;;;33.60;31.70;;;;;;4701020;30;20076;-74
2021/06/16 13:29:06;;;;;;;0.00;0.00;;;33.80;33.00;;;;;;4710877;30;20072;-75
2021/06/16 13:31:32;;;;;;;1.67;0.65;;;33.90;34.60;;;;;;4727592;30;20040;-75
2021/06/16 13:34:11;;;;;;;;;;;34.10;35.10;;;;;;4728081;30;20079;-76
2021/06/16 13:36:38;;;;;;;8.13;1.85;;;34.20;35.30;;;;;;4718999;30;19918;-76
2021/06/16 13:39:04;;;;;;;;;;;34.20;32.40;;;;;;4710075;30;20323;-76
2021/06/16 13:41:31;;;;;;;1.35;0.52;;;33.90;32.10;;;;;;4714664;30;19922;-76
2021/06/16 13:43:57;;;;;;;4.43;1.60;;;33.70;32.40;;;;;;4714214;30;20349;-76
2021/06/16 13:46:23;;;;;;;6.13;2.17;;;33.60;33.50;;;;;;4717190;30;20333;-76
2021/06/16 13:48:49;;;;;;;9.53;3.00;;;33.70;34.80;;;;;;4724169;30;20108;-76
2021/06/16 13:51:15;;;;;;;5.13;2.30;;;33.70;32.40;;;;;;4721952;30;20037;-76
2021/06/16 13:53:40;;;;;;;12.57;2.58;;;33.60;33.60;;;;;;4720417;30;20029;-75
2021/06/16 13:56:07;;;;;;;3.37;2.17;;;33.80;34.20;;;;;;4720601;30;20109;-77
2021/06/16 13:58:34;;;;;;;13.57;3.25;;;34.00;33.10;;;;;;4714574;30;20100;-77
2021/06/16 14:01:00;;;;;;;13.43;3.20;;;34.10;32.50;;;;;;4714761;30;20036;-76
2021/06/16 14:03:27;;;;;;;5.80;2.50;;;34.20;32.60;;;;;;4700270;30;20029;-76
2021/06/16 14:05:54;;;;;;;12.18;2.70;;;34.30;33.00;;;;;;4720378;30;20313;-76
2021/06/16 14:08:19;;;;;;;9.55;2.67;;;34.50;33.70;;;;;;4701018;30;20038;-76
2021/06/16 14:10:45;;;;;;;6.73;2.53;;;34.50;32.20;;;;;;4701836;30;20075;-76
2021/06/16 14:13:11;;;;;;;10.50;2.90;;;34.40;32.60;;;;;;4726692;30;20029;-76
2021/06/16 14:15:39;;;;;;;11.90;2.83;;;34.30;33.90;;;;;;4725983;30;20099;-76
2021/06/16 14:18:05;;;;;;;12.25;2.95;;;34.20;33.30;;;;;;4714666;30;20037;-75
2021/06/16 14:20:31;;;;;;;13.80;2.90;;;34.10;32.20;;;;;;4721624;30;20104;-76
2021/06/16 14:22:57;;;;;;;11.65;3.47;;;34.00;32.60;;;;;;4719417;30;20037;-76
2021/06/16 14:25:25;;;;;;;8.23;2.97;;;34.00;33.20;;;;;;4718874;30;20108;-76
2021/06/16 14:27:55;;;;;;;16.42;3.13;;;34.00;33.60;;;;;;4728554;30;20037;-76
2021/06/16 14:30:21;;;;;;;8.32;3.08;;;34.00;32.70;;;;;;4715851;30;20041;-76
2021/06/16 14:32:49;;;;;;;6.45;2.97;;;33.80;33.20;;;;;;4715292;30;20033;-75
2021/06/16 14:35:15;;;;;;;18.48;3.03;;;33.80;33.10;;;;;;4715398;30;20029;-76
2021/06/16 14:37:41;;;;;;;7.80;2.85;;;33.70;32.60;;;;;;4717255;30;20037;-76
2021/06/16 14:40:08;;;;;;;11.45;2.88;;;33.50;32.50;;;;;;4717828;30;20075;-76
2021/06/16 14:42:34;;;;;;;7.47;3.00;;;33.50;34.40;;;;;;4715138;30;20105;-77
2021/06/16 14:45:00;;;;;;;11.73;2.40;;;33.60;33.20;;;;;;4721694;30;20033;-75
2021/06/16 14:47:26;;;;;;;10.98;2.95;;;33.70;31.90;;;;;;4709059;30;20049;-75
2021/06/16 14:49:52;;;;;;;5.03;2.33;;;33.60;33.30;;;;;;4701485;30;20040;-75
2021/06/16 14:52:19;;;;;;;7.25;2.80;;;33.70;33.30;;;;;;4725123;30;20213;-75
2021/06/16 14:54:45;;;;;;;;;;;33.80;32.70;;;;;;4714029;30;20117;-75
2021/06/16 14:57:11;;;;;;;2.88;1.40;;;33.80;32.70;;;;;;4717690;30;19911;-76
2021/06/16 14:59:37;;;;;;;10.85;2.38;;;34.00;32.20;;;;;;4716866;30;20228;-75
2021/06/16 15:02:04;;;;;;;0.28;0.17;;;34.00;32.50;;;;;;4722409;30;20097;-75
2021/06/16 15:04:30;;;;;;;8.18;2.85;;;33.90;34.20;;;;;;4728875;30;20187;-75
2021/06/16 15:06:56;;;;;;;0.90;0.77;;;33.90;33.50;;;;;;4716040;30;20036;-76
2021/06/16 15:09:22;;;;;;;0.00;0.00;;;34.00;33.00;;;;;;4715109;30;20037;-76
2021/06/16 15:11:48;;;;;;;0.00;0.00;;;33.90;34.60;;;;;;4726252;30;20092;-75
2021/06/16 15:14:14;;;;;;;7.75;2.95;;;33.70;31.70;;;;;;4715028;30;20287;-75
2021/06/16 15:16:40;;;;;;;6.13;2.78;;;33.60;33.50;;;;;;4711997;30;20045;-76
2021/06/16 15:19:07;;;;;;;;;;;33.60;33.20;;;;;;4725028;30;20064;-75
2021/06/16 15:21:34;;;;;;;14.52;2.92;;;33.60;34.20;;;;;;4716891;30;19915;-74
2021/06/16 15:23:59;;;;;;;23.08;3.08;;;33.70;33.10;;;;;;4717076;30;20033;-75
2021/06/16 15:26:29;;;;;;;9.37;2.93;;;33.30;32.60;;;;;;4704869;30;20044;-75
2021/06/16 15:28:55;;;;;;;8.95;2.90;;;33.10;33.70;;;;;;4722352;30;20037;-75
2021/06/16 15:31:21;;;;;;;7.03;2.70;;;33.10;33.10;;;;;;4724367;30;20035;-75
2021/06/16 15:33:47;;;;;;;7.20;2.77;;;33.20;33.90;;;;;;4728045;30;20033;-75
2021/06/16 15:36:13;;;;;;;8.20;2.92;;;33.40;35.30;;;;;;4716477;30;20033;-75